Time;durP1;ratioP1;P1;durP2;ratioP2;P2;SDS_P1;SDS_P2;PMS_P1;PMS_P2;Temp;Humidity;BMP_temperature;BMP_pressure;BME280_temperature;BME280_humidity;BME280_pressure;Samples;Min_cycle;Max_cycle;Signal;HPM_P1;HPM_P2
2022/05/14 00:02:14;;;;;;;10.67;5.80;;;11.30;1.00;;;;;;5020942;28;20471;-55
2022/05/14 00:04:47;;;;;;;7.43;5.63;;;11.30;1.00;;;;;;5002732;28;20468;-54
2022/05/14 00:07:14;;;;;;;10.30;5.50;;;11.30;1.00;;;;;;5013845;28;20963;-56
2022/05/14 00:09:45;;;;;;;7.13;5.47;;;11.20;1.00;;;;;;4999157;28;20468;-55
2022/05/14 00:15:05;;;;;;;5.90;5.03;;;11.20;1.00;;;;;;5019289;28;20522;-55
2022/05/14 00:17:33;;;;;;;8.13;5.37;;;11.10;1.00;;;;;;5007153;28;20465;-55
2022/05/14 00:20:00;;;;;;;6.43;5.40;;;11.10;1.00;;;;;;4999565;28;20929;-54
2022/05/14 00:22:32;;;;;;;8.40;5.23;;;11.10;1.00;;;;;;4999973;28;20473;-54
2022/05/14 00:25:00;;;;;;;5.70;5.20;;;11.00;1.00;;;;;;5018956;28;20566;-55
2022/05/14 00:27:30;;;;;;;6.73;5.67;;;11.00;1.00;;;;;;5018604;28;20496;-54
2022/05/14 00:29:57;;;;;;;7.30;5.50;;;10.90;1.00;;;;;;5019638;28;20522;-55
2022/05/14 00:32:26;;;;;;;11.90;6.30;;;11.00;1.00;;;;;;5019364;28;20522;-56
2022/05/14 00:34:56;;;;;;;8.60;6.13;;;10.90;1.00;;;;;;5002495;28;20780;-55
2022/05/14 00:37:29;;;;;;;10.40;6.30;;;10.80;1.00;;;;;;5000604;28;20461;-55
2022/05/14 00:40:01;;;;;;;6.17;5.67;;;10.80;1.00;;;;;;5000410;28;20461;-55
2022/05/14 00:42:36;;;;;;;11.10;6.10;;;10.60;1.00;;;;;;5000315;28;20465;-54
2022/05/14 00:45:09;;;;;;;14.70;6.33;;;10.50;1.00;;;;;;5014244;28;20636;-55
2022/05/14 00:47:38;;;;;;;9.37;6.03;;;10.50;1.00;;;;;;5019687;28;20791;-57
2022/05/14 00:50:15;;;;;;;8.90;6.53;;;10.40;1.00;;;;;;5019437;28;20514;-55
2022/05/14 00:52:44;;;;;;;8.00;5.70;;;10.40;1.00;;;;;;5019535;28;20578;-55
2022/05/14 00:55:16;;;;;;;8.70;6.27;;;10.40;1.00;;;;;;5007333;28;20504;-55
2022/05/14 00:57:46;;;;;;;8.73;6.17;;;10.30;1.00;;;;;;5000153;28;20471;-54
2022/05/14 01:00:19;;;;;;;10.20;6.03;;;10.30;1.00;;;;;;4999838;28;20483;-55
2022/05/14 01:02:56;;;;;;;11.33;6.40;;;10.20;1.00;;;;;;4998127;28;20465;-56
2022/05/14 01:05:32;;;;;;;6.57;5.90;;;10.10;1.00;;;;;;5009147;28;20475;-56
2022/05/14 01:08:03;;;;;;;8.70;6.60;;;10.20;1.00;;;;;;5019528;28;20876;-56
2022/05/14 01:10:43;;;;;;;8.53;7.00;;;10.20;1.00;;;;;;5017818;28;20510;-55
2022/05/14 01:13:10;;;;;;;13.13;6.33;;;10.30;1.00;;;;;;5019495;28;20499;-55
2022/05/14 01:15:53;;;;;;;8.13;6.07;;;10.20;1.00;;;;;;5010871;28;20465;-56
2022/05/14 01:18:22;;;;;;;11.10;6.90;;;10.20;1.00;;;;;;4999654;28;20861;-53
2022/05/14 01:20:56;;;;;;;9.07;6.40;;;10.20;1.00;;;;;;5014181;28;20500;-55
2022/05/14 01:23:31;;;;;;;7.50;5.97;;;10.20;1.00;;;;;;5018071;28;20518;-55
2022/05/14 01:26:29;;;;;;;9.90;6.70;;;10.10;1.00;;;;;;5011765;28;20461;-56
2022/05/14 01:29:04;;;;;;;8.60;6.90;;;10.10;1.00;;;;;;4999860;28;20465;-55
2022/05/14 01:31:31;;;;;;;9.37;7.23;;;10.00;1.00;;;;;;5015280;28;20825;-56
2022/05/14 01:34:05;;;;;;;9.40;7.47;;;10.00;1.00;;;;;;5017967;28;20499;-55
2022/05/14 01:36:38;;;;;;;8.57;6.83;;;10.00;1.00;;;;;;5010556;28;20555;-55
2022/05/14 01:39:06;;;;;;;9.90;6.40;;;9.90;1.00;;;;;;4999654;28;20465;-56
2022/05/14 01:41:35;;;;;;;8.90;5.60;;;9.80;1.00;;;;;;4998823;28;20464;-55
2022/05/14 01:44:05;;;;;;;8.10;6.10;;;9.80;1.00;;;;;;4998904;28;20773;-55
2022/05/14 01:46:38;;;;;;;9.80;6.20;;;9.70;1.00;;;;;;5007222;28;20538;-56
2022/05/14 01:49:08;;;;;;;11.17;7.37;;;9.70;1.00;;;;;;5018562;28;20464;-55
2022/05/14 01:51:37;;;;;;;9.53;6.77;;;9.60;1.00;;;;;;5017966;28;20463;-55
2022/05/14 01:54:09;;;;;;;9.03;7.53;;;9.40;1.00;;;;;;5018136;28;20944;-55
2022/05/14 01:56:40;;;;;;;12.13;7.83;;;9.40;1.00;;;;;;5012562;28;20465;-55
2022/05/14 01:59:10;;;;;;;8.93;7.57;;;9.40;1.00;;;;;;4999560;28;20813;-54
2022/05/14 02:01:40;;;;;;;11.37;6.77;;;9.40;1.00;;;;;;4998559;28;20469;-56
2022/05/14 02:04:13;;;;;;;13.57;7.50;;;9.40;1.00;;;;;;4998904;28;20812;-54
2022/05/14 02:06:46;;;;;;;8.10;7.30;;;9.40;1.00;;;;;;5000307;28;20514;-56
2022/05/14 02:09:17;;;;;;;8.40;6.70;;;9.30;1.00;;;;;;5018602;28;20506;-55
2022/05/14 02:11:45;;;;;;;9.53;6.77;;;9.30;1.00;;;;;;5017958;28;20559;-55
2022/05/14 02:14:13;;;;;;;9.37;6.90;;;9.40;1.00;;;;;;5018182;28;20551;-55
2022/05/14 02:16:42;;;;;;;8.47;7.20;;;9.30;1.00;;;;;;5018360;28;20885;-56
2022/05/14 02:19:13;;;;;;;12.80;6.77;;;9.30;1.00;;;;;;5016371;28;21024;-56
2022/05/14 02:21:43;;;;;;;7.73;7.00;;;9.30;1.00;;;;;;5017739;28;20518;-56
2022/05/14 02:24:10;;;;;;;9.57;7.40;;;9.20;1.00;;;;;;5017862;28;20511;-55
2022/05/14 02:26:40;;;;;;;7.43;6.00;;;9.20;1.00;;;;;;5017916;28;20752;-54
2022/05/14 02:29:10;;;;;;;7.83;6.63;;;9.20;1.00;;;;;;5004347;28;20468;-55
2022/05/14 02:31:40;;;;;;;8.33;6.53;;;9.20;1.00;;;;;;4998379;28;20471;-54
2022/05/14 02:34:14;;;;;;;10.57;7.67;;;9.20;1.00;;;;;;4997201;28;20547;-56
2022/05/14 02:36:44;;;;;;;8.77;6.77;;;9.10;1.00;;;;;;4998351;28;20889;-56
2022/05/14 02:39:17;;;;;;;14.70;7.50;;;9.10;1.00;;;;;;5007637;28;20464;-55
2022/05/14 02:41:46;;;;;;;11.00;7.33;;;9.10;25.70;;;;;;5017932;28;20495;-55
2022/05/14 02:44:19;;;;;;;7.70;6.83;;;9.10;23.70;;;;;;5015888;28;20847;-56
2022/05/14 02:46:46;;;;;;;8.30;6.37;;;9.10;32.50;;;;;;5017771;28;20480;-55
2022/05/14 02:49:13;;;;;;;9.43;7.30;;;9.10;23.20;;;;;;5010679;28;20833;-53
2022/05/14 02:51:44;;;;;;;9.10;7.17;;;9.00;43.80;;;;;;4998022;28;20492;-54
2022/05/14 02:54:16;;;;;;;12.40;7.80;;;9.10;97.60;;;;;;4998031;28;20505;-55
2022/05/14 02:56:46;;;;;;;9.13;6.87;;;9.10;96.20;;;;;;4998167;28;20917;-55
2022/05/14 02:59:15;;;;;;;10.80;6.80;;;9.10;87.20;;;;;;4998363;28;20744;-52
2022/05/14 03:01:49;;;;;;;10.27;7.70;;;9.10;29.00;;;;;;4997718;28;20471;-56
2022/05/14 03:04:19;;;;;;;7.80;6.17;;;9.10;2.90;;;;;;5004208;28;20879;-55
2022/05/14 03:06:49;;;;;;;11.27;8.10;;;9.00;1.00;;;;;;5017716;28;20471;-54
2022/05/14 03:09:16;;;;;;;7.97;6.50;;;9.00;16.20;;;;;;5017059;28;20472;-56
2022/05/14 03:11:43;;;;;;;7.20;6.13;;;9.00;9.20;;;;;;5017549;28;20469;-56
2022/05/14 03:14:11;;;;;;;13.53;7.70;;;9.00;17.70;;;;;;5014310;28;20502;-55
2022/05/14 03:16:40;;;;;;;10.10;7.93;;;9.00;82.50;;;;;;4997995;28;20563;-54
2022/05/14 03:19:07;;;;;;;8.40;7.13;;;9.00;64.60;;;;;;4997062;28;20500;-56
2022/05/14 03:21:37;;;;;;;11.17;6.40;;;9.00;33.00;;;;;;4997577;28;20465;-56
2022/05/14 03:24:04;;;;;;;7.10;6.40;;;8.90;21.20;;;;;;4997708;28;20465;-56
2022/05/14 03:26:31;;;;;;;11.20;6.50;;;9.00;53.10;;;;;;5014921;28;20503;-55
2022/05/14 03:29:03;;;;;;;11.30;7.07;;;8.90;57.90;;;;;;5017039;28;20468;-56
2022/05/14 03:31:35;;;;;;;7.87;6.67;;;8.90;45.40;;;;;;5007532;28;20492;-54
2022/05/14 03:34:16;;;;;;;10.93;6.80;;;8.90;89.30;;;;;;4997560;28;20524;-55
2022/05/14 03:36:47;;;;;;;12.90;7.13;;;8.90;91.00;;;;;;4997695;28;20567;-56
2022/05/14 03:39:18;;;;;;;9.60;6.80;;;8.90;99.90;;;;;;4997681;28;20964;-56
2022/05/14 03:41:50;;;;;;;9.40;6.70;;;8.80;99.90;;;;;;5003602;28;20846;-57
2022/05/14 03:44:37;;;;;;;8.33;6.70;;;8.80;99.90;;;;;;5017161;28;20460;-56
2022/05/14 03:47:06;;;;;;;14.13;6.63;;;8.80;99.90;;;;;;5016602;28;20486;-55
2022/05/14 03:49:35;;;;;;;9.87;6.67;;;8.80;99.90;;;;;;5016864;28;20463;-56
2022/05/14 03:52:02;;;;;;;10.40;7.13;;;8.80;99.90;;;;;;5010777;28;20461;-57
2022/05/14 03:54:29;;;;;;;9.47;6.80;;;8.80;99.90;;;;;;4997185;28;20886;-56
2022/05/14 03:56:56;;;;;;;7.33;5.67;;;8.80;99.90;;;;;;4997441;28;20465;-56
2022/05/14 03:59:23;;;;;;;11.80;7.90;;;8.80;99.90;;;;;;4997565;28;20901;-56
2022/05/14 04:01:50;;;;;;;9.27;6.40;;;8.80;79.00;;;;;;4997115;28;20901;-57
2022/05/14 04:04:17;;;;;;;9.00;6.87;;;8.90;65.90;;;;;;4998187;28;20470;-56
2022/05/14 04:06:48;;;;;;;9.33;6.80;;;8.90;74.00;;;;;;5000150;28;20539;-57
2022/05/14 04:09:18;;;;;;;14.10;7.47;;;8.90;34.90;;;;;;5001076;28;20468;-56
2022/05/14 04:11:48;;;;;;;14.30;7.80;;;8.90;1.00;;;;;;5000610;28;20464;-56
2022/05/14 04:14:18;;;;;;;8.37;6.60;;;8.90;1.00;;;;;;5015820;28;20512;-56
2022/05/14 04:16:49;;;;;;;10.13;6.30;;;8.90;1.00;;;;;;5019893;28;20948;-56
2022/05/14 04:19:19;;;;;;;8.00;7.00;;;8.90;1.00;;;;;;5020741;28;20468;-56
2022/05/14 04:21:47;;;;;;;8.17;6.37;;;9.00;1.00;;;;;;5020246;28;20490;-56
2022/05/14 04:24:15;;;;;;;9.60;6.90;;;9.00;1.00;;;;;;5007551;28;20489;-56
2022/05/14 04:26:42;;;;;;;10.30;6.30;;;9.10;1.00;;;;;;5000770;28;20461;-56
2022/05/14 04:29:14;;;;;;;9.40;6.57;;;9.10;1.00;;;;;;5000881;28;20465;-54
2022/05/14 04:31:50;;;;;;;9.80;5.70;;;9.20;1.00;;;;;;5000799;28;20494;-56
2022/05/14 04:34:20;;;;;;;10.03;5.70;;;9.20;1.00;;;;;;5000494;28;20493;-57
2022/05/14 04:36:48;;;;;;;9.53;5.90;;;9.30;1.00;;;;;;4999848;28;20536;-56
2022/05/14 04:39:15;;;;;;;11.47;5.70;;;9.30;1.00;;;;;;5011931;28;20879;-57
2022/05/14 04:41:49;;;;;;;13.90;6.40;;;9.40;1.00;;;;;;5019400;28;20741;-56
2022/05/14 04:44:18;;;;;;;8.93;6.87;;;9.40;1.00;;;;;;5019752;28;20910;-56
2022/05/14 04:46:50;;;;;;;7.23;5.63;;;9.40;1.00;;;;;;5020060;28;20788;-56
2022/05/14 04:49:17;;;;;;;8.77;5.63;;;9.50;1.00;;;;;;5010821;28;20468;-55
2022/05/14 04:51:46;;;;;;;6.50;5.07;;;9.60;1.00;;;;;;4999916;28;20469;-56
2022/05/14 04:54:17;;;;;;;7.20;5.77;;;9.60;1.00;;;;;;4999643;28;20503;-57
2022/05/14 04:56:47;;;;;;;16.03;6.80;;;9.70;1.00;;;;;;5000442;28;20941;-56
2022/05/14 04:59:14;;;;;;;6.63;5.20;;;9.90;1.00;;;;;;5004090;28;20464;-55
2022/05/14 05:03:16;;;;;;;9.53;5.80;;;9.90;1.00;;;;;;5019265;28;20464;-57
2022/05/14 05:04:31;;;;;;;8.27;5.80;;;10.00;1.00;;;;;;5019241;28;20727;-57
2022/05/14 05:06:58;;;;;;;7.93;5.20;;;10.10;1.00;;;;;;5020087;28;20467;-56
2022/05/14 05:09:45;;;;;;;10.37;5.97;;;10.20;1.00;;;;;;5016972;28;20534;-56
2022/05/14 05:12:18;;;;;;;7.00;5.63;;;10.20;1.00;;;;;;4993431;28;20967;-56
2022/05/14 05:14:45;;;;;;;7.17;5.53;;;10.30;1.00;;;;;;4999482;28;20466;-56
2022/05/14 05:17:14;;;;;;;9.00;5.77;;;10.40;1.00;;;;;;5015654;28;20464;-57
2022/05/14 05:19:44;;;;;;;9.67;5.80;;;10.40;1.00;;;;;;5018766;28;20518;-56
2022/05/14 05:22:11;;;;;;;8.97;6.27;;;10.50;1.00;;;;;;5017896;28;20464;-56
2022/05/14 05:24:43;;;;;;;11.47;7.13;;;10.50;1.00;;;;;;5018615;28;20546;-57
2022/05/14 05:27:12;;;;;;;8.30;5.50;;;10.60;1.00;;;;;;5005881;28;20547;-57
2022/05/14 05:29:39;;;;;;;13.50;6.70;;;10.70;1.00;;;;;;4999496;28;20472;-54
2022/05/14 05:32:09;;;;;;;11.70;5.40;;;10.80;1.00;;;;;;4999152;28;20469;-57
2022/05/14 05:34:38;;;;;;;9.93;5.63;;;10.90;1.00;;;;;;4999578;28;20489;-57
2022/05/14 05:37:11;;;;;;;9.40;5.27;;;11.10;1.00;;;;;;5003267;28;20508;-56
2022/05/14 05:39:42;;;;;;;8.43;5.13;;;11.20;1.00;;;;;;5010967;28;20468;-56
2022/05/14 05:42:15;;;;;;;7.87;4.73;;;11.40;1.00;;;;;;5013340;28;20511;-56
2022/05/14 05:44:45;;;;;;;9.20;4.90;;;11.70;1.00;;;;;;5007167;28;20465;-60
2022/05/14 05:47:16;;;;;;;12.70;5.23;;;11.90;99.90;;;;;;5011779;28;20492;-60
2022/05/14 05:49:44;;;;;;;8.73;4.60;;;12.10;99.90;;;;;;5007251;28;20920;-59
2022/05/14 05:52:14;;;;;;;12.33;4.50;;;12.20;99.90;;;;;;5006875;28;20471;-59
2022/05/14 05:57:36;;;;;;;7.47;4.00;;;12.50;99.90;;;;;;5000804;28;20467;-58
2022/05/14 06:00:06;;;;;;;6.40;4.60;;;12.50;99.90;;;;;;5017077;28;20784;-59
2022/05/14 06:02:33;;;;;;;9.17;4.93;;;12.60;99.90;;;;;;5006664;28;20510;-58
2022/05/14 06:05:07;;;;;;;6.60;4.20;;;12.50;99.90;;;;;;5002175;28;20456;-60
2022/05/14 06:07:42;;;;;;;10.13;5.13;;;12.60;99.90;;;;;;5008737;28;20537;-59
2022/05/14 06:10:12;;;;;;;9.33;4.83;;;12.80;99.90;;;;;;5008451;28;20466;-59
2022/05/14 06:12:50;;;;;;;16.97;5.30;;;13.10;99.90;;;;;;5008578;28;20456;-60
2022/05/14 06:15:19;;;;;;;8.37;5.17;;;13.30;99.90;;;;;;5014211;28;20987;-59
2022/05/14 06:17:53;;;;;;;12.90;4.87;;;13.50;99.90;;;;;;5015774;28;20452;-60
2022/05/14 06:20:23;;;;;;;7.53;4.83;;;13.70;99.90;;;;;;5012010;28;20554;-60
2022/05/14 06:22:52;;;;;;;9.17;4.30;;;14.00;99.90;;;;;;5009084;28;20456;-60
2022/05/14 06:25:22;;;;;;;6.50;4.40;;;14.10;99.90;;;;;;5010623;28;20467;-59
2022/05/14 06:27:57;;;;;;;11.30;4.90;;;14.30;99.90;;;;;;5013501;28;20538;-60
2022/05/14 06:30:26;;;;;;;11.73;4.93;;;14.60;99.90;;;;;;5004696;28;20459;-60
2022/05/14 06:32:58;;;;;;;9.47;5.00;;;14.90;99.90;;;;;;5005952;28;20465;-60
2022/05/14 06:35:26;;;;;;;7.50;4.37;;;15.20;99.90;;;;;;5013845;28;20542;-60
2022/05/14 06:37:55;;;;;;;8.67;4.63;;;15.40;99.90;;;;;;5017432;28;20522;-60
2022/05/14 06:40:28;;;;;;;7.13;4.90;;;15.60;99.90;;;;;;5017782;28;20476;-60
2022/05/14 06:42:57;;;;;;;7.70;5.67;;;15.60;99.90;;;;;;5015284;28;20531;-59
2022/05/14 06:45:30;;;;;;;5.40;4.40;;;15.80;99.90;;;;;;5003788;28;20572;-60
2022/05/14 06:47:58;;;;;;;8.23;4.57;;;16.10;99.90;;;;;;5003757;28;20519;-60
2022/05/14 06:50:26;;;;;;;13.00;6.00;;;16.20;99.90;;;;;;5003635;28;20959;-60
2022/05/14 06:53:00;;;;;;;7.50;4.77;;;16.10;99.90;;;;;;5015287;28;20487;-60
2022/05/14 06:55:32;;;;;;;8.83;5.07;;;16.50;99.90;;;;;;4997502;28;20500;-60
2022/05/14 06:58:00;;;;;;;8.77;4.90;;;16.70;99.90;;;;;;5000284;28;20984;-59
2022/05/14 07:08:55;;;;;;;7.63;5.00;;;16.60;99.90;;;;;;4996761;28;20915;-60
2022/05/14 07:11:24;;;;;;;6.03;4.60;;;16.80;99.90;;;;;;5007748;28;20465;-60
2022/05/14 07:13:53;;;;;;;6.43;4.20;;;17.20;99.90;;;;;;5009523;28;20465;-60
2022/05/14 07:16:24;;;;;;;7.13;5.00;;;17.60;99.90;;;;;;4997456;28;20497;-60
2022/05/14 07:18:51;;;;;;;10.37;5.50;;;17.80;99.90;;;;;;5016057;28;20550;-59
2022/05/14 07:21:18;;;;;;;10.03;6.17;;;18.10;99.90;;;;;;5015824;28;20471;-59
2022/05/14 07:23:57;;;;;;;7.20;4.40;;;18.10;99.90;;;;;;5009461;28;20563;-60
2022/05/14 07:26:27;;;;;;;7.57;4.83;;;17.80;99.90;;;;;;4997913;28;20551;-59
2022/05/14 07:29:10;;;;;;;5.70;4.40;;;18.70;99.90;;;;;;4998167;28;20468;-60
2022/05/14 07:31:38;;;;;;;10.80;5.87;;;18.90;99.90;;;;;;5000328;28;20523;-60
2022/05/14 07:34:05;;;;;;;8.10;4.90;;;19.30;99.90;;;;;;5005503;28;20947;-60
2022/05/14 07:36:39;;;;;;;7.03;4.73;;;19.10;99.90;;;;;;5012100;28;20515;-60
2022/05/14 07:39:07;;;;;;;9.73;4.83;;;19.20;99.90;;;;;;5018016;28;20518;-60
2022/05/14 07:41:39;;;;;;;7.20;5.23;;;19.60;99.90;;;;;;5019393;28;20804;-60
2022/05/14 07:44:10;;;;;;;5.60;4.83;;;20.10;99.90;;;;;;5021628;28;20494;-60
2022/05/14 07:46:40;;;;;;;8.23;4.77;;;20.30;99.90;;;;;;5020344;28;20984;-59
2022/05/14 07:49:13;;;;;;;8.50;5.90;;;20.10;99.90;;;;;;5021869;28;20822;-60
2022/05/14 07:51:44;;;;;;;6.20;4.57;;;19.90;99.90;;;;;;5019561;28;20460;-59
2022/05/14 07:54:20;;;;;;;8.83;4.33;;;19.80;99.90;;;;;;5020870;28;20948;-58
2022/05/14 07:56:56;;;;;;;10.53;5.13;;;20.00;99.90;;;;;;5011846;28;20528;-59
2022/05/14 07:59:28;;;;;;;6.07;4.47;;;20.20;99.90;;;;;;5001582;28;20503;-58
2022/05/14 08:01:58;;;;;;;7.60;4.17;;;20.40;99.90;;;;;;5002621;28;20472;-59
2022/05/14 08:04:41;;;;;;;7.03;4.80;;;20.70;99.90;;;;;;5020065;28;20757;-59
2022/05/14 08:07:11;;;;;;;14.07;4.90;;;20.90;99.90;;;;;;4999636;28;20468;-59
2022/05/14 08:09:42;;;;;;;5.50;4.40;;;21.10;99.90;;;;;;5001032;28;20469;-59
2022/05/14 08:12:14;;;;;;;9.60;4.70;;;20.90;99.90;;;;;;5001724;28;20468;-59
2022/05/14 08:14:43;;;;;;;6.83;4.33;;;20.80;99.90;;;;;;5020739;28;20463;-59
2022/05/14 08:17:11;;;;;;;12.00;4.97;;;20.80;99.90;;;;;;5018639;28;20456;-59
2022/05/14 08:19:39;;;;;;;5.83;5.03;;;21.00;99.90;;;;;;5000333;28;20921;-59
2022/05/14 08:24:53;;;;;;;10.00;5.47;;;21.30;99.90;;;;;;5020147;28;20809;-59
2022/05/14 08:27:21;;;;;;;6.53;4.50;;;21.70;99.90;;;;;;5018638;28;20468;-60
2022/05/14 08:29:51;;;;;;;6.90;4.90;;;21.80;99.90;;;;;;5000717;28;20823;-59
2022/05/14 08:32:21;;;;;;;8.03;4.90;;;21.90;99.90;;;;;;5001820;28;20473;-60
2022/05/14 08:34:48;;;;;;;8.93;4.40;;;22.00;99.90;;;;;;5014035;28;20745;-60
2022/05/14 08:37:15;;;;;;;9.00;4.50;;;21.90;99.90;;;;;;5003099;28;20809;-59
2022/05/14 08:39:42;;;;;;;6.50;5.00;;;21.50;99.90;;;;;;5004043;28;20559;-61
2022/05/14 08:42:24;;;;;;;8.67;5.37;;;21.80;99.90;;;;;;5013603;28;20468;-59
2022/05/14 08:44:53;;;;;;;9.37;4.90;;;22.10;99.90;;;;;;5009643;28;20964;-59
2022/05/14 08:47:33;;;;;;;9.50;5.40;;;22.40;99.90;;;;;;5001300;28;20833;-60
2022/05/14 08:50:05;;;;;;;6.93;4.60;;;22.80;99.90;;;;;;5000123;28;20568;-60
2022/05/14 08:52:39;;;;;;;11.87;5.37;;;22.70;99.90;;;;;;5004393;28;20901;-60
2022/05/14 08:55:12;;;;;;;8.70;4.93;;;23.00;99.90;;;;;;5017610;28;20530;-60
2022/05/14 08:57:49;;;;;;;5.37;4.03;;;23.50;99.90;;;;;;5019585;28;20472;-61
2022/05/14 09:00:24;;;;;;;8.60;4.10;;;23.60;99.90;;;;;;5002502;28;20504;-60
2022/05/14 09:02:54;;;;;;;6.67;4.90;;;23.40;99.90;;;;;;5000239;28;20465;-60
2022/05/14 09:05:23;;;;;;;7.27;5.00;;;23.40;99.90;;;;;;5012251;28;20468;-60
2022/05/14 09:07:56;;;;;;;8.90;5.40;;;23.20;99.90;;;;;;5006102;28;20492;-60
2022/05/14 09:10:26;;;;;;;9.87;5.10;;;23.50;99.90;;;;;;5011784;28;20522;-60
2022/05/14 09:12:57;;;;;;;8.30;4.80;;;23.40;99.90;;;;;;5008923;28;20510;-60
2022/05/14 09:15:33;;;;;;;5.20;4.40;;;23.80;99.90;;;;;;5014517;28;20497;-60
2022/05/14 09:18:12;;;;;;;8.10;4.60;;;23.70;99.90;;;;;;5016092;28;20445;-61
2022/05/14 09:20:48;;;;;;;10.97;4.90;;;23.90;99.90;;;;;;5011669;28;20533;-60
2022/05/14 09:23:30;;;;;;;8.83;4.70;;;23.50;99.90;;;;;;5012614;28;20463;-60
2022/05/14 09:26:03;;;;;;;6.93;4.63;;;23.90;99.90;;;;;;5004937;28;20551;-61
2022/05/14 09:28:40;;;;;;;11.53;5.20;;;24.30;99.90;;;;;;5001736;28;20562;-61
2022/05/14 09:31:10;;;;;;;8.30;5.33;;;24.20;99.90;;;;;;5004883;28;20467;-61
2022/05/14 09:33:56;;;;;;;5.20;4.63;;;24.60;99.90;;;;;;4998611;28;20469;-61
2022/05/14 09:36:35;;;;;;;9.13;5.43;;;24.60;99.90;;;;;;5003697;28;20535;-61
2022/05/14 09:39:13;;;;;;;10.07;5.80;;;25.20;99.90;;;;;;5004084;28;20468;-61
2022/05/14 09:41:46;;;;;;;7.00;4.90;;;25.60;99.90;;;;;;5006925;28;20555;-60
2022/05/14 09:44:28;;;;;;;9.20;5.07;;;25.70;99.90;;;;;;5013252;28;20558;-60
2022/05/14 09:47:13;;;;;;;8.03;4.60;;;25.50;99.90;;;;;;5011368;28;20456;-60
2022/05/14 09:49:43;;;;;;;8.47;4.90;;;25.30;99.90;;;;;;5017036;28;20895;-60
2022/05/14 09:52:14;;;;;;;8.73;4.80;;;24.70;99.90;;;;;;5015804;28;20519;-61
2022/05/14 09:54:50;;;;;;;6.03;4.03;;;25.00;99.90;;;;;;5015309;28;20816;-60
2022/05/14 09:57:40;;;;;;;8.10;4.97;;;25.10;99.90;;;;;;5015142;28;20785;-60
2022/05/14 10:00:20;;;;;;;8.80;5.37;;;25.80;99.90;;;;;;5012644;28;20923;-60
2022/05/14 10:03:08;;;;;;;7.20;4.83;;;26.30;99.90;;;;;;5015662;28;20464;-59
2022/05/14 10:06:16;;;;;;;7.87;4.90;;;25.80;99.90;;;;;;5014379;28;20504;-60
2022/05/14 10:08:54;;;;;;;14.37;5.13;;;25.30;99.90;;;;;;5010380;28;20496;-60
2022/05/14 10:11:31;;;;;;;11.33;5.93;;;25.40;99.90;;;;;;5010383;28;20755;-60
2022/05/14 10:14:17;;;;;;;8.00;4.70;;;25.80;99.90;;;;;;5016924;28;20773;-62
2022/05/14 10:17:12;;;;;;;11.40;4.97;;;26.00;99.90;;;;;;5017963;28;20467;-60
2022/05/14 10:20:00;;;;;;;6.93;4.60;;;25.80;99.90;;;;;;5001485;28;20475;-60
2022/05/14 10:28:32;;;;;;;10.50;5.00;;;26.30;99.90;;;;;;5001737;28;20455;-61
2022/05/14 10:31:11;;;;;;;7.50;4.70;;;26.70;99.90;;;;;;5010036;28;20467;-59
2022/05/14 10:33:43;;;;;;;10.80;5.10;;;25.80;99.90;;;;;;5002153;28;20461;-61
2022/05/14 10:36:23;;;;;;;10.43;5.00;;;24.30;99.90;;;;;;4998114;28;20852;-60
2022/05/14 10:39:01;;;;;;;10.20;5.00;;;23.30;99.90;;;;;;4999808;28;20961;-60
2022/05/14 10:41:33;;;;;;;9.40;5.03;;;24.20;99.90;;;;;;5017454;28;20459;-61
2022/05/14 10:44:05;;;;;;;10.83;4.60;;;24.20;99.90;;;;;;5004764;28;20476;-60
2022/05/14 10:46:36;;;;;;;8.10;5.23;;;24.80;99.90;;;;;;4997934;28;20470;-60
2022/05/14 10:49:14;;;;;;;9.47;4.30;;;25.50;99.90;;;;;;5015952;28;20975;-61
2022/05/14 10:51:49;;;;;;;7.87;4.80;;;25.80;99.90;;;;;;4997404;28;20511;-60
2022/05/14 10:54:27;;;;;;;9.90;4.40;;;26.40;99.90;;;;;;5004413;28;20897;-59
2022/05/14 10:57:00;;;;;;;11.10;4.83;;;25.30;99.90;;;;;;5017525;28;20541;-61
2022/05/14 10:59:45;;;;;;;9.60;4.93;;;25.20;99.90;;;;;;5016874;28;20464;-59
2022/05/14 11:02:24;;;;;;;9.63;4.57;;;25.40;99.90;;;;;;5000754;28;20483;-61
2022/05/14 11:04:57;;;;;;;11.40;5.10;;;26.10;99.90;;;;;;4997534;28;20559;-61
2022/05/14 11:07:34;;;;;;;8.03;5.03;;;26.40;99.90;;;;;;4997962;28;20465;-59
2022/05/14 11:10:17;;;;;;;11.07;5.23;;;26.60;99.90;;;;;;5009830;28;20566;-60
2022/05/14 11:15:31;;;;;;;9.37;4.60;;;25.90;99.90;;;;;;4997794;28;20452;-61
2022/05/14 11:18:06;;;;;;;9.47;5.23;;;26.40;99.90;;;;;;4999193;28;20512;-60
2022/05/14 11:20:33;;;;;;;6.47;4.90;;;27.00;99.90;;;;;;4998290;28;20468;-61
2022/05/14 11:23:12;;;;;;;7.57;4.40;;;27.10;99.90;;;;;;5016407;28;20464;-62
2022/05/14 11:25:42;;;;;;;9.20;4.43;;;26.30;99.90;;;;;;5007603;28;20885;-61
2022/05/14 11:28:13;;;;;;;6.40;4.90;;;26.10;99.90;;;;;;5015263;28;20443;-61
2022/05/14 11:31:00;;;;;;;8.97;4.90;;;26.80;99.90;;;;;;5014490;28;20470;-60
2022/05/14 11:33:34;;;;;;;9.13;4.93;;;26.50;99.90;;;;;;4997490;28;20981;-59
2022/05/14 11:36:10;;;;;;;6.53;4.73;;;26.10;99.90;;;;;;5008896;28;20908;-61
2022/05/14 11:38:41;;;;;;;6.37;5.37;;;25.30;99.90;;;;;;5012584;28;20506;-61
2022/05/14 11:41:11;;;;;;;8.03;5.03;;;25.40;99.90;;;;;;5015098;28;20474;-61
2022/05/14 11:43:40;;;;;;;7.00;4.70;;;25.00;99.90;;;;;;5015071;28;20772;-61
2022/05/14 11:46:26;;;;;;;10.87;5.60;;;25.80;99.90;;;;;;5012886;28;20524;-60
2022/05/14 11:49:03;;;;;;;13.30;5.40;;;25.30;99.90;;;;;;5011399;28;20516;-59
2022/05/14 11:51:39;;;;;;;9.07;4.83;;;25.90;99.90;;;;;;5014694;28;20452;-59
2022/05/14 11:54:11;;;;;;;9.40;4.77;;;26.00;99.90;;;;;;5013730;28;20785;-61
2022/05/14 11:56:50;;;;;;;8.17;4.83;;;24.80;99.90;;;;;;5013029;28;20558;-61
2022/05/14 11:59:42;;;;;;;9.00;4.73;;;25.50;99.90;;;;;;5007553;28;20465;-61
2022/05/14 12:02:16;;;;;;;7.30;4.90;;;25.00;99.90;;;;;;5010821;28;20464;-62
2022/05/14 12:04:51;;;;;;;7.10;4.23;;;25.30;99.90;;;;;;5011195;28;20810;-60
2022/05/14 12:08:00;;;;;;;11.13;4.80;;;25.10;99.90;;;;;;5007936;28;20455;-61
2022/05/14 12:10:39;;;;;;;7.23;5.13;;;25.30;99.90;;;;;;5012420;28;20974;-61
2022/05/14 12:13:13;;;;;;;9.53;5.10;;;26.30;99.90;;;;;;5012185;28;20542;-61
2022/05/14 12:15:47;;;;;;;11.63;5.20;;;26.70;99.90;;;;;;5014348;28;20510;-61
2022/05/14 12:18:18;;;;;;;9.17;5.20;;;27.20;99.90;;;;;;5011136;28;20587;-61
2022/05/14 12:21:01;;;;;;;8.50;6.30;;;26.30;99.90;;;;;;5011811;28;20769;-61
2022/05/14 12:23:41;;;;;;;10.60;5.50;;;26.30;99.90;;;;;;5011491;28;20514;-61
2022/05/14 12:26:27;;;;;;;10.50;4.47;;;26.70;99.90;;;;;;5013393;28;21009;-60
2022/05/14 12:28:57;;;;;;;8.90;5.00;;;24.60;99.90;;;;;;5013238;28;20936;-63
2022/05/14 12:34:14;;;;;;;8.77;5.17;;;24.10;99.90;;;;;;4997370;28;20482;-61
2022/05/14 12:36:48;;;;;;;8.40;5.27;;;24.20;99.90;;;;;;5014385;28;20493;-61
2022/05/14 12:39:19;;;;;;;11.17;5.70;;;25.20;99.90;;;;;;5015930;28;20764;-60
2022/05/14 12:41:54;;;;;;;9.53;5.77;;;26.20;99.90;;;;;;5013701;28;20499;-60
2022/05/14 12:44:26;;;;;;;10.93;6.23;;;25.50;99.90;;;;;;5011733;28;20797;-59
2022/05/14 12:46:58;;;;;;;10.73;5.40;;;25.60;99.90;;;;;;5001698;28;20508;-61
2022/05/14 12:49:29;;;;;;;8.00;5.30;;;26.50;99.90;;;;;;5010031;28;20568;-59
2022/05/14 12:52:02;;;;;;;6.90;4.97;;;26.20;99.90;;;;;;5008376;28;20547;-60
2022/05/14 12:54:31;;;;;;;5.83;4.90;;;25.80;99.90;;;;;;5009660;28;20505;-61
2022/05/14 12:57:05;;;;;;;8.63;5.60;;;25.00;99.90;;;;;;5009935;28;20492;-60
2022/05/14 12:59:35;;;;;;;10.30;5.90;;;25.00;99.90;;;;;;5010768;28;20471;-61
2022/05/14 13:02:12;;;;;;;7.83;5.57;;;25.10;99.90;;;;;;5012131;28;20471;-60
2022/05/14 13:04:52;;;;;;;5.67;4.47;;;25.00;99.90;;;;;;5015417;28;20476;-61
2022/05/14 13:07:22;;;;;;;6.60;5.37;;;25.80;99.90;;;;;;5004970;28;20465;-59
2022/05/14 13:10:02;;;;;;;8.07;5.47;;;25.20;99.90;;;;;;5015450;28;20476;-61
2022/05/14 13:12:38;;;;;;;10.20;4.97;;;24.70;99.90;;;;;;5008249;28;20909;-61
2022/05/14 13:15:11;;;;;;;9.47;4.70;;;25.30;99.90;;;;;;5008190;28;20467;-58
2022/05/14 13:17:40;;;;;;;6.13;5.03;;;26.60;99.90;;;;;;5011927;28;20490;-61
2022/05/14 13:20:16;;;;;;;15.77;5.97;;;27.00;99.90;;;;;;5013247;28;20500;-60
2022/05/14 13:22:48;;;;;;;7.10;5.33;;;26.80;99.90;;;;;;5009311;28;20456;-59
2022/05/14 13:25:36;;;;;;;14.23;5.60;;;27.60;99.90;;;;;;5006000;28;20484;-59
2022/05/14 13:28:18;;;;;;;8.77;5.00;;;27.70;99.90;;;;;;5014531;28;20920;-59
2022/05/14 13:30:53;;;;;;;8.53;5.77;;;27.60;99.90;;;;;;5019468;28;20480;-61
2022/05/14 13:33:33;;;;;;;6.30;4.73;;;28.30;99.90;;;;;;5020309;28;20479;-60
2022/05/14 13:38:57;;;;;;;8.53;5.67;;;28.20;99.90;;;;;;5011193;28;20538;-60
2022/05/14 13:41:27;;;;;;;9.97;5.30;;;27.00;99.90;;;;;;5015414;28;20464;-61
2022/05/14 13:44:01;;;;;;;10.30;5.87;;;26.50;99.90;;;;;;5011163;28;20555;-61
2022/05/14 13:46:30;;;;;;;7.30;4.50;;;26.20;99.90;;;;;;5003543;28;20463;-60
2022/05/14 13:49:06;;;;;;;8.73;5.63;;;24.90;99.90;;;;;;5011551;28;20873;-61
2022/05/14 13:51:41;;;;;;;6.30;5.40;;;25.20;99.90;;;;;;5006660;28;20521;-60